FSAA4: Arkansas River at Ft. Smith

Data processed at Mon Oct 16 2017 22:21


All information presented herein is the property of the government of the United States of America and may be revised or deleted at any time without prior notice.
Dissemination of this information without the expressed written consent of the Public Affairs Office, Tulsa District U.S. Army Corps of Engineers is strictly prohibited.
These data are gathered electronically and, as presented, have not undergone any form of quality control. These data are not guaranteed to be valid or correct.
Go to home page.
Go to station list.

Upstream stations:

Downstream station:
Previous Day
Next Day
Current Day
    
SHEF ID:       FSAA4     Arkansas River at Ft. Smith, Ar.
STATION TYPE:  

                STAGE  STAGE(2)  RIV-FLOW FLOW-INDX  FLOW-VEL  WTR-TEMP  BAT-LOAD
                   ft        ft       cfs      ft/s       mph         F      volt
              Ccp-Rev   Ccp-Rev   Ccp-Rev   Ccp-Rev   Ccp-Rev   Ccp-Rev   Ccp-Rev
(US/Central)
10/16 00:00     12.03     12.03      3788      0.42      0.13     70.48     12.65
10/16 01:00     11.83     11.82      5210      0.55      0.19     71.08     12.65
10/16 02:00     11.90     11.90       576      0.06      0.02     71.31     12.65
10/16 03:00     12.01     12.02       871      0.09      0.03     71.06     12.57
10/16 04:00     12.08     12.06      4712      0.50      0.17     71.04     12.57
10/16 05:00     12.02     12.02      4927      0.52      0.17     71.47     12.57
10/16 06:00     12.09     12.08       292      0.03      0.01     71.35     12.57
10/16 07:00     12.16     12.15      2850      0.31      0.10     71.17     12.57
10/16 08:00     12.11     12.08     17811      1.61      0.62     70.79     12.49
10/16 09:00     11.70     11.69      5621      0.59      0.20     70.50     12.49
10/16 10:00     11.83     11.81      -956     -0.43     -0.03     70.70     12.57
10/16 11:00     11.97     11.94      -965     -0.19     -0.03     70.66     12.65
10/16 12:00     11.93     11.92      5363      0.56      0.19     70.97     12.81
10/16 13:00     11.87     11.87       287      0.03      0.01     70.92     13.84
10/16 14:00     12.25     12.25      7862      0.76      0.27     71.17     13.84
10/16 15:00     12.18     12.16     22289      1.98      0.78     70.38     13.84
10/16 16:00     12.08     12.05     18598      1.68      0.65     70.48     13.84
10/16 17:00     12.11     12.09     16278      1.48      0.57     70.47     13.84
10/16 18:00     12.10     12.07     19331      1.74      0.68     70.30     13.84
10/16 19:00     12.04     12.03     18313      1.66      0.64     70.20     13.05
10/16 20:00     12.00     11.99     19784      1.79      0.70     70.11     12.81
10/16 21:00     11.98     11.94     17887      1.63      0.63     69.98     12.73
10/16 22:00      ----      ----      ----      ----      ----      ----      ----
10/16 23:00      ----      ----      ----      ----      ----      ----      ----